createdAt,value
2022-10-08T00:01:16.691Z,12.27
2022-10-08T00:03:47.170Z,12.12
2022-10-08T00:06:18.384Z,12.13
2022-10-08T00:08:50.474Z,12.08
2022-10-08T00:11:22.244Z,11.98
2022-10-08T00:13:51.498Z,11.87
2022-10-08T00:16:21.608Z,11.85
2022-10-08T00:18:51.136Z,12.03
2022-10-08T00:21:22.038Z,12.14
2022-10-08T00:23:51.141Z,12.17
2022-10-08T00:26:23.614Z,12.17
2022-10-08T00:28:52.874Z,11.99
2022-10-08T00:31:22.770Z,11.96
2022-10-08T00:33:51.671Z,12.16
2022-10-08T00:36:20.793Z,12.33
2022-10-08T00:38:49.323Z,12.16
2022-10-08T00:41:20.738Z,12.28
2022-10-08T00:43:50.515Z,12.35
2022-10-08T00:46:25.307Z,12.37
2022-10-08T00:49:01.017Z,12.44
2022-10-08T00:51:30.901Z,12.53
2022-10-08T00:53:59.173Z,12.50
2022-10-08T00:56:27.206Z,12.60
2022-10-08T00:58:55.004Z,12.57
2022-10-08T01:01:23.043Z,12.61
2022-10-08T01:03:50.799Z,12.68
2022-10-08T01:06:27.235Z,12.58
2022-10-08T01:09:03.862Z,12.65
2022-10-08T01:11:44.441Z,12.70
2022-10-08T01:14:25.195Z,12.71
2022-10-08T01:17:01.451Z,12.73
2022-10-08T01:20:04.754Z,12.88
2022-10-08T01:22:44.538Z,12.99
2022-10-08T01:25:34.164Z,13.04
2022-10-08T01:28:12.225Z,13.13
2022-10-08T01:30:46.319Z,13.22
2022-10-08T01:33:23.725Z,13.20
2022-10-08T01:35:57.234Z,13.26
2022-10-08T01:38:28.111Z,13.38
2022-10-08T01:41:00.274Z,13.39
2022-10-08T01:43:33.638Z,13.41
2022-10-08T01:46:04.425Z,13.44
2022-10-08T01:48:36.046Z,13.49
2022-10-08T01:51:08.735Z,13.56
2022-10-08T01:53:40.557Z,13.51
2022-10-08T01:56:12.121Z,13.57
2022-10-08T01:58:49.872Z,13.55
2022-10-08T02:01:24.510Z,13.56
2022-10-08T02:04:10.864Z,13.61
2022-10-08T02:06:43.646Z,13.72
2022-10-08T02:09:12.211Z,13.80
2022-10-08T02:11:40.214Z,13.96
2022-10-08T02:14:09.433Z,14.02
2022-10-08T02:16:46.755Z,14.09
2022-10-08T02:19:24.009Z,14.19
2022-10-08T02:21:54.096Z,14.27
2022-10-08T02:24:30.483Z,14.32
2022-10-08T02:27:01.719Z,14.41
2022-10-08T02:29:37.381Z,14.51
2022-10-08T02:32:11.234Z,14.51
2022-10-08T02:34:44.345Z,14.49
2022-10-08T02:37:16.986Z,14.51
2022-10-08T02:39:51.520Z,14.33
2022-10-08T02:42:23.569Z,14.49
2022-10-08T02:44:57.630Z,14.51
2022-10-08T02:47:30.345Z,14.53
2022-10-08T02:50:02.669Z,14.59
2022-10-08T02:52:35.291Z,14.62
2022-10-08T02:55:08.228Z,14.62
2022-10-08T02:57:42.396Z,14.67
2022-10-08T03:00:13.223Z,14.61
2022-10-08T03:02:45.070Z,14.52
2022-10-08T03:05:18.193Z,14.53
2022-10-08T03:07:48.411Z,14.58
2022-10-08T03:10:16.282Z,14.62
2022-10-08T03:12:44.199Z,14.51
2022-10-08T03:15:15.890Z,14.51
2022-10-08T03:17:46.934Z,14.55
2022-10-08T03:20:15.489Z,14.56
2022-10-08T03:22:43.289Z,14.52
2022-10-08T03:25:11.130Z,14.51
2022-10-08T03:27:38.801Z,14.50
2022-10-08T03:30:07.613Z,14.44
2022-10-08T03:32:36.642Z,14.34
2022-10-08T03:35:04.558Z,14.34
2022-10-08T03:37:32.221Z,14.42
2022-10-08T03:39:59.916Z,14.50
2022-10-08T03:42:27.665Z,14.59
2022-10-08T03:44:55.808Z,14.56
2022-10-08T03:47:23.595Z,14.54
2022-10-08T03:49:52.665Z,14.56
2022-10-08T03:52:20.361Z,14.57
2022-10-08T03:54:48.123Z,14.66
2022-10-08T03:57:15.808Z,14.63
2022-10-08T03:59:43.526Z,14.43
2022-10-08T04:02:11.277Z,14.38
2022-10-08T04:04:39.035Z,14.45
2022-10-08T04:07:08.088Z,14.48
2022-10-08T04:09:35.748Z,14.49
2022-10-08T04:12:03.417Z,14.39
2022-10-08T04:14:31.133Z,14.27
2022-10-08T04:16:58.803Z,14.19
2022-10-08T04:19:26.505Z,14.05
2022-10-08T04:21:54.154Z,14.02
2022-10-08T04:24:23.210Z,13.94
2022-10-08T04:26:50.899Z,14.00
2022-10-08T04:29:18.604Z,14.00
2022-10-08T04:31:46.270Z,14.16
2022-10-08T04:34:14.104Z,14.22
2022-10-08T04:36:41.791Z,14.21
2022-10-08T04:39:09.615Z,14.23
2022-10-08T04:41:38.636Z,14.18
2022-10-08T04:44:06.457Z,14.35
2022-10-08T04:46:34.267Z,14.30
2022-10-08T04:49:02.152Z,14.28
2022-10-08T04:51:30.478Z,14.34
2022-10-08T04:53:59.126Z,14.37
2022-10-08T04:56:28.980Z,14.39
2022-10-08T04:58:59.315Z,14.29
2022-10-08T05:01:28.492Z,14.22
2022-10-08T05:03:57.733Z,14.25
2022-10-08T05:06:28.280Z,14.33
2022-10-08T05:08:56.541Z,14.34
2022-10-08T05:11:25.285Z,14.34
2022-10-08T05:13:54.927Z,14.39
2022-10-08T05:16:25.150Z,14.50
2022-10-08T05:18:53.562Z,14.51
2022-10-08T05:21:23.730Z,14.42
2022-10-08T05:23:55.657Z,14.46
2022-10-08T05:26:41.521Z,14.53
2022-10-08T05:29:13.099Z,14.49
2022-10-08T05:31:42.174Z,14.51
2022-10-08T05:34:16.576Z,14.45
2022-10-08T05:36:44.526Z,14.55
2022-10-08T05:39:12.605Z,14.50
2022-10-08T05:41:40.293Z,14.44
2022-10-08T05:44:10.700Z,14.56
2022-10-08T05:46:39.544Z,14.56
2022-10-08T05:49:16.466Z,14.51
2022-10-08T05:51:44.191Z,14.52
2022-10-08T05:54:11.937Z,14.48
2022-10-08T05:56:39.885Z,14.47
2022-10-08T05:59:07.578Z,14.50
2022-10-08T06:01:35.490Z,14.48
2022-10-08T06:04:08.863Z,14.50
2022-10-08T06:06:39.608Z,14.50
2022-10-08T06:09:08.883Z,14.53
2022-10-08T06:11:38.151Z,14.47
2022-10-08T06:14:07.461Z,14.48
2022-10-08T06:16:35.938Z,14.43
2022-10-08T06:19:05.160Z,14.41
2022-10-08T06:21:33.604Z,14.52
2022-10-08T06:24:05.122Z,14.51
2022-10-08T06:26:35.938Z,14.64
2022-10-08T06:29:06.204Z,14.74
2022-10-08T06:31:34.526Z,14.77
2022-10-08T06:34:04.227Z,14.70
2022-10-08T06:36:32.828Z,14.72
2022-10-08T06:39:03.980Z,14.78
2022-10-08T06:41:33.290Z,14.80
2022-10-08T06:44:01.438Z,14.82
2022-10-08T06:46:31.155Z,14.80
2022-10-08T06:49:00.368Z,14.80
2022-10-08T06:51:29.011Z,14.77
2022-10-08T06:54:02.838Z,14.79
2022-10-08T06:56:36.287Z,14.79
2022-10-08T06:59:04.570Z,14.85
2022-10-08T07:01:34.045Z,15.00
2022-10-08T07:04:03.271Z,15.09
2022-10-08T07:06:31.251Z,15.19
2022-10-08T07:09:00.966Z,15.16
2022-10-08T07:11:29.242Z,15.30
2022-10-08T07:13:58.667Z,15.37
2022-10-08T07:16:27.879Z,15.49
2022-10-08T07:18:58.290Z,15.52
2022-10-08T07:21:26.470Z,15.53
2022-10-08T07:23:54.176Z,15.59
2022-10-08T07:26:23.231Z,15.58
2022-10-08T07:28:52.694Z,15.71
2022-10-08T07:31:24.066Z,15.53
2022-10-08T07:33:51.918Z,15.63
2022-10-08T07:36:24.027Z,15.55
2022-10-08T07:38:55.158Z,15.76
2022-10-08T07:41:23.178Z,15.90
2022-10-08T07:43:52.322Z,16.04
2022-10-08T07:46:21.982Z,16.13
2022-10-08T07:48:50.707Z,16.15
2022-10-08T07:51:20.517Z,16.23
2022-10-08T07:53:48.489Z,16.36
2022-10-08T07:56:18.222Z,16.53
2022-10-08T07:58:47.242Z,16.62
2022-10-08T08:01:17.898Z,16.67
2022-10-08T08:03:47.077Z,16.54
2022-10-08T08:06:16.966Z,16.31
2022-10-08T08:08:46.000Z,16.47
2022-10-08T08:11:15.617Z,16.60
2022-10-08T08:13:43.929Z,16.69
2022-10-08T08:16:13.194Z,16.81
2022-10-08T08:18:42.921Z,16.70
2022-10-08T08:21:15.144Z,16.80
2022-10-08T08:23:44.962Z,16.80
2022-10-08T08:26:14.943Z,16.83
2022-10-08T08:28:42.941Z,16.90
2022-10-08T08:31:12.901Z,17.08
2022-10-08T08:33:41.325Z,17.11
2022-10-08T08:36:09.821Z,17.12
2022-10-08T08:38:39.579Z,17.10
2022-10-08T08:41:18.549Z,16.91
2022-10-08T08:43:48.450Z,17.02
2022-10-08T08:46:22.266Z,16.94
2022-10-08T08:48:54.522Z,16.93
2022-10-08T08:51:22.371Z,16.93
2022-10-08T08:53:51.609Z,17.10
2022-10-08T08:56:23.598Z,17.32
2022-10-08T08:59:00.297Z,17.35
2022-10-08T09:01:34.572Z,17.46
2022-10-08T09:04:10.605Z,17.58
2022-10-08T09:06:40.646Z,17.28
2022-10-08T09:09:21.610Z,17.22
2022-10-08T09:11:49.518Z,17.20
2022-10-08T09:14:31.947Z,17.29
2022-10-08T09:17:01.668Z,17.61
2022-10-08T09:19:29.502Z,17.75
2022-10-08T09:21:57.234Z,17.78
2022-10-08T09:24:29.679Z,17.92
2022-10-08T09:26:57.815Z,17.79
2022-10-08T09:29:34.253Z,17.98
2022-10-08T09:32:01.970Z,17.99
2022-10-08T09:34:29.710Z,18.10
2022-10-08T09:37:05.593Z,18.18
2022-10-08T09:39:37.110Z,18.07
2022-10-08T09:42:17.221Z,18.22
2022-10-08T09:44:47.015Z,18.28
2022-10-08T09:47:16.405Z,18.63
2022-10-08T09:49:49.705Z,18.58
2022-10-08T09:52:20.511Z,18.59
2022-10-08T09:54:53.283Z,18.72
2022-10-08T09:57:22.783Z,18.79
2022-10-08T09:59:53.964Z,18.80
2022-10-08T10:02:31.127Z,19.11
2022-10-08T10:05:00.190Z,19.03
2022-10-08T10:07:39.470Z,19.09
2022-10-08T10:10:19.074Z,19.06
2022-10-08T10:12:50.416Z,19.04
2022-10-08T10:15:23.138Z,19.11
2022-10-08T10:17:53.266Z,19.23
2022-10-08T10:20:27.292Z,19.06
2022-10-08T10:23:00.039Z,18.91
2022-10-08T10:25:38.042Z,18.68
2022-10-08T10:28:09.620Z,18.40
2022-10-08T10:30:49.917Z,18.30
2022-10-08T10:33:21.579Z,18.21
2022-10-08T10:35:53.793Z,18.24
2022-10-08T10:38:25.083Z,18.40
2022-10-08T10:41:05.751Z,19.02
2022-10-08T10:43:44.060Z,18.96
2022-10-08T10:46:25.158Z,18.74
2022-10-08T10:48:52.915Z,19.16
2022-10-08T10:51:41.281Z,19.17
2022-10-08T10:54:43.945Z,18.75
2022-10-08T10:57:22.546Z,18.33
2022-10-08T11:00:03.826Z,18.33
2022-10-08T11:02:36.150Z,18.08
2022-10-08T11:05:08.619Z,18.20
2022-10-08T11:07:52.261Z,18.69
2022-10-08T11:10:33.177Z,18.98
2022-10-08T11:13:12.594Z,19.60
2022-10-08T11:15:45.703Z,19.35
2022-10-08T11:18:24.944Z,19.47
2022-10-08T11:21:10.781Z,19.60
2022-10-08T11:23:55.736Z,19.42
2022-10-08T11:26:31.757Z,19.50
2022-10-08T11:29:15.261Z,19.75
2022-10-08T11:31:43.999Z,19.81
2022-10-08T11:34:22.410Z,19.61
2022-10-08T11:37:03.643Z,19.41
2022-10-08T11:39:40.388Z,19.03
2022-10-08T11:42:16.077Z,19.56
2022-10-08T11:44:45.161Z,19.91
2022-10-08T11:47:47.145Z,20.43
2022-10-08T11:50:25.558Z,20.26
2022-10-08T11:52:55.845Z,20.37
2022-10-08T11:55:26.483Z,20.61
2022-10-08T11:58:08.687Z,20.80
2022-10-08T12:00:44.318Z,20.84
2022-10-08T12:03:27.038Z,20.89
2022-10-08T12:05:56.990Z,20.83
2022-10-08T12:08:51.575Z,20.93
2022-10-08T12:11:50.755Z,20.60
2022-10-08T12:14:48.692Z,20.46
2022-10-08T12:17:18.537Z,20.18
2022-10-08T12:20:18.825Z,19.77
2022-10-08T12:23:01.037Z,19.61
2022-10-08T12:26:08.940Z,19.56
2022-10-08T12:28:54.541Z,19.50
2022-10-08T12:31:29.681Z,19.38
2022-10-08T12:34:04.997Z,19.41
2022-10-08T12:36:56.702Z,19.15
2022-10-08T12:39:35.998Z,19.30
2022-10-08T12:42:13.774Z,20.01
2022-10-08T12:44:54.099Z,19.58
2022-10-08T12:47:37.151Z,19.47
2022-10-08T12:50:25.604Z,18.96
2022-10-08T12:52:53.621Z,20.10
2022-10-08T12:55:24.301Z,20.28
2022-10-08T12:57:53.398Z,20.59
2022-10-08T13:00:24.320Z,20.79
2022-10-08T13:03:03.434Z,21.15
2022-10-08T13:05:37.660Z,21.49
2022-10-08T13:08:34.877Z,21.59
2022-10-08T13:11:05.284Z,21.88
2022-10-08T13:13:36.661Z,21.80
2022-10-08T13:16:06.045Z,22.02
2022-10-08T13:18:36.533Z,22.29
2022-10-08T13:21:07.873Z,22.88
2022-10-08T13:23:37.252Z,22.87
2022-10-08T13:26:05.058Z,22.67
2022-10-08T13:28:59.055Z,22.24
2022-10-08T13:31:24.322Z,21.16
2022-10-08T13:33:52.445Z,20.73
2022-10-08T13:36:24.263Z,20.49
2022-10-08T13:38:52.042Z,20.41
2022-10-08T13:41:24.116Z,20.80
2022-10-08T13:43:52.146Z,20.26
2022-10-08T13:46:19.892Z,19.95
2022-10-08T13:48:47.653Z,19.58
2022-10-08T13:51:15.346Z,19.38
2022-10-08T13:53:45.595Z,19.90
2022-10-08T13:56:13.549Z,20.20
2022-10-08T13:58:41.289Z,20.48
2022-10-08T14:01:09.086Z,20.82
2022-10-08T14:03:36.785Z,21.32
2022-10-08T14:06:04.715Z,21.78
2022-10-08T14:08:32.705Z,21.42
2022-10-08T14:11:02.147Z,21.17
2022-10-08T14:13:30.306Z,21.26
2022-10-08T14:15:58.140Z,21.09
2022-10-08T14:18:26.545Z,20.97
2022-10-08T14:20:54.388Z,20.83
2022-10-08T14:23:22.159Z,21.10
2022-10-08T14:25:49.939Z,21.01
2022-10-08T14:28:19.087Z,20.95
2022-10-08T14:30:46.810Z,20.81
2022-10-08T14:33:14.523Z,20.99
2022-10-08T14:35:42.597Z,20.84
2022-10-08T14:38:10.255Z,20.87
2022-10-08T14:40:38.944Z,21.13
2022-10-08T14:43:06.621Z,21.25
2022-10-08T14:45:35.991Z,20.74
2022-10-08T14:48:03.777Z,21.07
2022-10-08T14:50:31.798Z,21.30
2022-10-08T14:52:59.547Z,21.54
2022-10-08T14:55:27.401Z,21.62
2022-10-08T14:57:55.149Z,21.53
2022-10-08T15:00:22.912Z,21.66
2022-10-08T15:02:52.084Z,21.71
2022-10-08T15:05:19.997Z,21.56
2022-10-08T15:07:47.953Z,21.34
2022-10-08T15:10:16.065Z,21.36
2022-10-08T15:12:43.737Z,21.48
2022-10-08T15:15:11.889Z,21.54
2022-10-08T15:17:39.687Z,21.53
2022-10-08T15:20:09.879Z,21.57
2022-10-08T15:22:37.551Z,21.46
2022-10-08T15:25:05.974Z,21.44
2022-10-08T15:27:33.617Z,21.41
2022-10-08T15:30:01.345Z,21.35
2022-10-08T15:32:30.693Z,21.23
2022-10-08T15:34:58.543Z,21.22
2022-10-08T15:37:27.689Z,21.02
2022-10-08T15:39:55.358Z,20.92
2022-10-08T15:42:23.017Z,20.71
2022-10-08T15:44:50.729Z,20.40
2022-10-08T15:47:18.456Z,20.68
2022-10-08T15:49:46.315Z,20.36
2022-10-08T15:52:16.480Z,20.34
2022-10-08T15:54:46.295Z,20.32
2022-10-08T15:57:16.606Z,20.30
2022-10-08T15:59:44.408Z,20.40
2022-10-08T16:02:17.150Z,20.31
2022-10-08T16:04:47.100Z,20.04
2022-10-08T16:07:14.913Z,20.17
2022-10-08T16:09:42.642Z,20.13
2022-10-08T16:12:11.966Z,20.08
2022-10-08T16:14:39.666Z,20.21
2022-10-08T16:17:07.649Z,20.16
2022-10-08T16:19:35.434Z,20.19
2022-10-08T16:22:03.985Z,20.23
2022-10-08T16:24:31.683Z,20.31
2022-10-08T16:26:59.403Z,20.33
2022-10-08T16:29:28.750Z,20.30
2022-10-08T16:31:56.404Z,20.21
2022-10-08T16:34:27.030Z,20.02
2022-10-08T16:36:54.798Z,19.93
2022-10-08T16:39:24.290Z,19.86
2022-10-08T16:41:52.304Z,19.73
2022-10-08T16:44:22.076Z,19.63
2022-10-08T16:46:52.947Z,19.53
2022-10-08T16:49:25.428Z,19.41
2022-10-08T16:51:54.602Z,19.41
2022-10-08T16:54:22.683Z,19.42
2022-10-08T16:56:50.776Z,19.19
2022-10-08T16:59:20.538Z,19.16
2022-10-08T17:01:51.776Z,19.09
2022-10-08T17:04:20.527Z,19.03
2022-10-08T17:06:48.453Z,18.93
2022-10-08T17:09:16.354Z,18.88
2022-10-08T17:11:44.089Z,18.78
2022-10-08T17:14:12.637Z,18.73
2022-10-08T17:16:43.113Z,18.68
2022-10-08T17:19:13.265Z,18.62
2022-10-08T17:21:41.529Z,18.59
2022-10-08T17:24:10.675Z,18.54
2022-10-08T17:26:38.630Z,18.49
2022-10-08T17:29:08.883Z,18.46
2022-10-08T17:31:37.562Z,18.17
2022-10-08T17:34:06.329Z,17.76
2022-10-08T17:36:37.394Z,17.59
2022-10-08T17:39:07.734Z,17.51
2022-10-08T17:41:37.559Z,17.53
2022-10-08T17:44:08.392Z,17.43
2022-10-08T17:46:38.484Z,17.29
2022-10-08T17:49:06.506Z,17.05
2022-10-08T17:51:35.671Z,16.82
2022-10-08T17:54:05.757Z,16.72
2022-10-08T17:56:34.098Z,16.72
2022-10-08T17:59:02.181Z,16.62
2022-10-08T18:01:32.010Z,16.48
2022-10-08T18:04:02.249Z,16.21
2022-10-08T18:06:31.288Z,16.11
2022-10-08T18:09:03.661Z,16.12
2022-10-08T18:11:33.321Z,16.13
2022-10-08T18:14:02.542Z,16.05
2022-10-08T18:16:30.557Z,16.12
2022-10-08T18:18:58.681Z,16.12
2022-10-08T18:21:26.693Z,16.17
2022-10-08T18:23:54.410Z,16.17
2022-10-08T18:26:25.676Z,16.07
2022-10-08T18:28:55.283Z,16.04
2022-10-08T18:31:25.050Z,15.69
2022-10-08T18:33:56.109Z,15.68
2022-10-08T18:36:25.786Z,15.69
2022-10-08T18:38:57.613Z,15.67
2022-10-08T18:41:29.021Z,15.51
2022-10-08T18:43:59.110Z,15.47
2022-10-08T18:46:26.891Z,15.29
2022-10-08T18:48:55.691Z,15.34
2022-10-08T18:51:24.958Z,15.33
2022-10-08T18:53:54.146Z,15.24
2022-10-08T18:56:25.311Z,15.24
2022-10-08T18:58:54.721Z,15.22
2022-10-08T19:01:24.702Z,15.12
2022-10-08T19:03:55.181Z,14.88
2022-10-08T19:06:24.738Z,14.77
2022-10-08T19:08:53.060Z,14.41
2022-10-08T19:11:23.497Z,14.53
2022-10-08T19:13:54.917Z,14.69
2022-10-08T19:16:23.032Z,14.76
2022-10-08T19:18:54.845Z,14.87
2022-10-08T19:21:23.513Z,14.92
2022-10-08T19:23:52.719Z,14.89
2022-10-08T19:26:20.461Z,14.93
2022-10-08T19:28:49.889Z,15.04
2022-10-08T19:31:21.370Z,14.99
2022-10-08T19:33:50.666Z,14.98
2022-10-08T19:36:19.253Z,14.95
2022-10-08T19:38:52.792Z,14.90
2022-10-08T19:41:21.738Z,15.01
2022-10-08T19:43:49.502Z,14.99
2022-10-08T19:46:17.666Z,14.76
2022-10-08T19:48:49.337Z,14.83
2022-10-08T19:51:17.763Z,14.70
2022-10-08T19:53:45.819Z,14.72
2022-10-08T19:56:14.905Z,14.79
2022-10-08T19:58:48.531Z,14.79
2022-10-08T20:01:19.303Z,14.81
2022-10-08T20:03:48.768Z,14.66
2022-10-08T20:06:23.207Z,14.47
2022-10-08T20:08:54.149Z,14.41
2022-10-08T20:11:23.170Z,14.51
2022-10-08T20:13:52.998Z,14.56
2022-10-08T20:16:22.565Z,14.63
2022-10-08T20:18:52.688Z,14.67
2022-10-08T20:21:21.319Z,14.31
2022-10-08T20:23:49.474Z,13.93
2022-10-08T20:26:20.708Z,14.07
2022-10-08T20:28:50.418Z,14.14
2022-10-08T20:31:20.236Z,14.03
2022-10-08T20:33:48.659Z,13.51
2022-10-08T20:36:18.327Z,13.42
2022-10-08T20:38:46.022Z,13.68
2022-10-08T20:41:13.702Z,13.89
2022-10-08T20:43:41.393Z,13.82
2022-10-08T20:46:11.739Z,13.62
2022-10-08T20:48:41.780Z,13.43
2022-10-08T20:51:11.708Z,13.44
2022-10-08T20:53:41.100Z,13.34
2022-10-08T20:56:10.247Z,13.40
2022-10-08T20:58:38.406Z,13.50
2022-10-08T21:01:08.647Z,13.37
2022-10-08T21:03:37.534Z,13.61
2022-10-08T21:06:07.315Z,13.78
2022-10-08T21:08:37.770Z,13.98
2022-10-08T21:11:08.695Z,13.96
2022-10-08T21:13:37.217Z,13.62
2022-10-08T21:16:07.513Z,13.36
2022-10-08T21:18:36.029Z,13.38
2022-10-08T21:21:04.671Z,13.21
2022-10-08T21:23:32.482Z,13.17
2022-10-08T21:26:09.692Z,12.78
2022-10-08T21:28:37.831Z,12.81
2022-10-08T21:31:07.172Z,12.91
2022-10-08T21:33:39.170Z,13.08
2022-10-08T21:36:10.341Z,13.15
2022-10-08T21:38:38.429Z,13.30
2022-10-08T21:41:12.188Z,13.09
2022-10-08T21:43:40.327Z,12.69
2022-10-08T21:46:08.834Z,12.50
2022-10-08T21:48:37.081Z,12.28
2022-10-08T21:51:06.908Z,12.10
2022-10-08T21:53:36.215Z,12.60
2022-10-08T21:56:06.738Z,12.74
2022-10-08T21:58:39.051Z,12.87
2022-10-08T22:01:08.029Z,12.86
2022-10-08T22:03:36.099Z,13.01
2022-10-08T22:06:04.558Z,12.88
2022-10-08T22:08:32.731Z,13.01
2022-10-08T22:11:00.501Z,13.03
2022-10-08T22:13:28.247Z,13.03
2022-10-08T22:15:59.035Z,13.13
2022-10-08T22:18:28.769Z,13.16
2022-10-08T22:20:57.025Z,13.07
2022-10-08T22:23:24.750Z,13.14
2022-10-08T22:25:55.891Z,13.08
2022-10-08T22:28:24.148Z,13.03
2022-10-08T22:30:52.604Z,13.03
2022-10-08T22:33:22.248Z,13.01
2022-10-08T22:35:49.983Z,12.96
2022-10-08T22:38:17.733Z,12.80
2022-10-08T22:40:45.478Z,12.79
2022-10-08T22:43:13.163Z,12.89
2022-10-08T22:45:41.502Z,12.62
2022-10-08T22:48:09.261Z,12.76
2022-10-08T22:50:39.007Z,12.79
2022-10-08T22:53:06.713Z,12.94
2022-10-08T22:55:34.468Z,12.86
2022-10-08T22:58:02.194Z,12.82
2022-10-08T23:00:29.892Z,12.85
2022-10-08T23:02:57.670Z,12.93
2022-10-08T23:05:25.454Z,12.83
2022-10-08T23:07:57.126Z,12.76
2022-10-08T23:10:25.709Z,12.69
2022-10-08T23:12:53.955Z,12.82
2022-10-08T23:15:22.212Z,12.62
2022-10-08T23:17:49.902Z,12.64
2022-10-08T23:20:17.700Z,12.61
2022-10-08T23:22:45.544Z,12.56
2022-10-08T23:25:15.016Z,12.50
2022-10-08T23:27:42.670Z,12.47
2022-10-08T23:30:31.319Z,12.38
2022-10-08T23:32:58.733Z,12.36
2022-10-08T23:35:26.507Z,12.41
2022-10-08T23:37:54.595Z,12.51
2022-10-08T23:40:23.612Z,12.44
2022-10-08T23:42:52.363Z,12.37
2022-10-08T23:45:20.447Z,12.31
2022-10-08T23:47:48.123Z,12.36
2022-10-08T23:50:16.071Z,12.35
2022-10-08T23:52:43.737Z,12.34
2022-10-08T23:55:11.510Z,12.28
2022-10-08T23:57:40.609Z,12.19
